sensor_id;sensor_type;location;lat;lon;timestamp;P1;durP1;ratioP1;P2;durP2;ratioP2
7719;SDS011;3902;49.474;8.616;2024-03-02T00:00:21;9.93;;;7.50;;
7719;SDS011;3902;49.474;8.616;2024-03-02T00:02:48;10.30;;;8.20;;
7719;SDS011;3902;49.474;8.616;2024-03-02T00:05:15;8.80;;;7.90;;
7719;SDS011;3902;49.474;8.616;2024-03-02T00:07:42;9.17;;;8.20;;
7719;SDS011;3902;49.474;8.616;2024-03-02T00:10:10;8.67;;;7.77;;
7719;SDS011;3902;49.474;8.616;2024-03-02T00:12:37;9.90;;;7.73;;
7719;SDS011;3902;49.474;8.616;2024-03-02T00:15:46;7.90;;;6.90;;
7719;SDS011;3902;49.474;8.616;2024-03-02T00:18:11;9.40;;;7.63;;
7719;SDS011;3902;49.474;8.616;2024-03-02T00:20:38;8.33;;;7.53;;
7719;SDS011;3902;49.474;8.616;2024-03-02T00:23:05;7.80;;;7.00;;
7719;SDS011;3902;49.474;8.616;2024-03-02T00:25:39;9.03;;;7.73;;
7719;SDS011;3902;49.474;8.616;2024-03-02T00:28:24;9.57;;;7.80;;
7719;SDS011;3902;49.474;8.616;2024-03-02T00:33:33;10.53;;;7.87;;
7719;SDS011;3902;49.474;8.616;2024-03-02T00:36:03;8.00;;;7.07;;
7719;SDS011;3902;49.474;8.616;2024-03-02T00:38:29;9.03;;;7.20;;
7719;SDS011;3902;49.474;8.616;2024-03-02T00:40:56;8.97;;;7.83;;
7719;SDS011;3902;49.474;8.616;2024-03-02T00:46:07;8.00;;;6.97;;
7719;SDS011;3902;49.474;8.616;2024-03-02T00:48:33;7.37;;;6.67;;
7719;SDS011;3902;49.474;8.616;2024-03-02T00:51:02;7.50;;;6.30;;
7719;SDS011;3902;49.474;8.616;2024-03-02T00:53:30;7.93;;;7.13;;
7719;SDS011;3902;49.474;8.616;2024-03-02T00:55:57;7.67;;;6.97;;
7719;SDS011;3902;49.474;8.616;2024-03-02T00:58:24;7.00;;;6.23;;
7719;SDS011;3902;49.474;8.616;2024-03-02T01:00:50;7.83;;;6.93;;
7719;SDS011;3902;49.474;8.616;2024-03-02T01:03:15;7.10;;;6.40;;
7719;SDS011;3902;49.474;8.616;2024-03-02T01:05:41;7.33;;;6.63;;
7719;SDS011;3902;49.474;8.616;2024-03-02T01:08:07;6.60;;;6.00;;
7719;SDS011;3902;49.474;8.616;2024-03-02T01:10:33;6.50;;;5.70;;
7719;SDS011;3902;49.474;8.616;2024-03-02T01:12:59;8.13;;;6.40;;
7719;SDS011;3902;49.474;8.616;2024-03-02T01:15:25;7.63;;;6.70;;
7719;SDS011;3902;49.474;8.616;2024-03-02T01:17:50;7.73;;;6.30;;
7719;SDS011;3902;49.474;8.616;2024-03-02T01:20:16;7.13;;;6.43;;
7719;SDS011;3902;49.474;8.616;2024-03-02T01:22:42;7.40;;;5.97;;
7719;SDS011;3902;49.474;8.616;2024-03-02T01:25:08;7.30;;;6.60;;
7719;SDS011;3902;49.474;8.616;2024-03-02T01:27:33;9.30;;;8.00;;
7719;SDS011;3902;49.474;8.616;2024-03-02T01:29:59;9.53;;;8.17;;
7719;SDS011;3902;49.474;8.616;2024-03-02T01:32:25;9.53;;;8.53;;
7719;SDS011;3902;49.474;8.616;2024-03-02T01:34:50;8.57;;;7.70;;
7719;SDS011;3902;49.474;8.616;2024-03-02T01:37:16;10.70;;;9.10;;
7719;SDS011;3902;49.474;8.616;2024-03-02T01:39:42;8.63;;;7.73;;
7719;SDS011;3902;49.474;8.616;2024-03-02T01:42:07;8.30;;;7.27;;
7719;SDS011;3902;49.474;8.616;2024-03-02T01:44:33;9.40;;;8.10;;
7719;SDS011;3902;49.474;8.616;2024-03-02T01:46:58;9.67;;;8.30;;
7719;SDS011;3902;49.474;8.616;2024-03-02T01:49:24;9.67;;;8.67;;
7719;SDS011;3902;49.474;8.616;2024-03-02T01:51:49;9.83;;;7.90;;
7719;SDS011;3902;49.474;8.616;2024-03-02T01:54:15;10.20;;;8.40;;
7719;SDS011;3902;49.474;8.616;2024-03-02T01:56:41;10.40;;;9.30;;
7719;SDS011;3902;49.474;8.616;2024-03-02T01:59:06;9.60;;;8.23;;
7719;SDS011;3902;49.474;8.616;2024-03-02T02:01:32;9.60;;;8.60;;
7719;SDS011;3902;49.474;8.616;2024-03-02T02:03:58;9.10;;;8.20;;
7719;SDS011;3902;49.474;8.616;2024-03-02T02:06:23;8.40;;;7.47;;
7719;SDS011;3902;49.474;8.616;2024-03-02T02:08:49;8.90;;;8.00;;
7719;SDS011;3902;49.474;8.616;2024-03-02T02:11:15;8.30;;;7.50;;
7719;SDS011;3902;49.474;8.616;2024-03-02T02:13:41;9.87;;;8.13;;
7719;SDS011;3902;49.474;8.616;2024-03-02T02:16:07;8.27;;;7.47;;
7719;SDS011;3902;49.474;8.616;2024-03-02T02:18:33;8.27;;;7.47;;
7719;SDS011;3902;49.474;8.616;2024-03-02T02:21:00;9.10;;;8.03;;
7719;SDS011;3902;49.474;8.616;2024-03-02T02:23:25;9.13;;;7.57;;
7719;SDS011;3902;49.474;8.616;2024-03-02T02:25:51;9.77;;;7.47;;
7719;SDS011;3902;49.474;8.616;2024-03-02T02:28:16;8.47;;;7.10;;
7719;SDS011;3902;49.474;8.616;2024-03-02T02:30:42;6.90;;;6.30;;
7719;SDS011;3902;49.474;8.616;2024-03-02T02:33:07;7.20;;;6.47;;
7719;SDS011;3902;49.474;8.616;2024-03-02T02:35:34;7.50;;;6.80;;
7719;SDS011;3902;49.474;8.616;2024-03-02T02:38:00;7.77;;;6.97;;
7719;SDS011;3902;49.474;8.616;2024-03-02T02:40:26;7.13;;;6.33;;
7719;SDS011;3902;49.474;8.616;2024-03-02T02:42:51;7.87;;;6.77;;
7719;SDS011;3902;49.474;8.616;2024-03-02T02:45:17;7.77;;;6.00;;
7719;SDS011;3902;49.474;8.616;2024-03-02T02:47:43;7.53;;;6.77;;
7719;SDS011;3902;49.474;8.616;2024-03-02T02:50:09;7.23;;;6.30;;
7719;SDS011;3902;49.474;8.616;2024-03-02T02:52:37;6.40;;;5.80;;
7719;SDS011;3902;49.474;8.616;2024-03-02T02:55:05;7.60;;;6.80;;
7719;SDS011;3902;49.474;8.616;2024-03-02T02:57:35;7.77;;;6.60;;
7719;SDS011;3902;49.474;8.616;2024-03-02T03:00:06;6.90;;;6.20;;
7719;SDS011;3902;49.474;8.616;2024-03-02T03:02:39;6.70;;;6.00;;
7719;SDS011;3902;49.474;8.616;2024-03-02T03:05:08;6.57;;;5.87;;
7719;SDS011;3902;49.474;8.616;2024-03-02T03:07:35;9.10;;;6.10;;
7719;SDS011;3902;49.474;8.616;2024-03-02T03:10:01;7.60;;;6.80;;
7719;SDS011;3902;49.474;8.616;2024-03-02T03:12:28;7.57;;;5.90;;
7719;SDS011;3902;49.474;8.616;2024-03-02T03:14:54;8.43;;;6.00;;
7719;SDS011;3902;49.474;8.616;2024-03-02T03:17:21;7.50;;;6.77;;
7719;SDS011;3902;49.474;8.616;2024-03-02T03:19:46;7.93;;;6.20;;
7719;SDS011;3902;49.474;8.616;2024-03-02T03:22:12;6.63;;;5.93;;
7719;SDS011;3902;49.474;8.616;2024-03-02T03:24:38;7.20;;;6.50;;
7719;SDS011;3902;49.474;8.616;2024-03-02T03:27:03;7.03;;;6.10;;
7719;SDS011;3902;49.474;8.616;2024-03-02T03:29:29;7.53;;;6.80;;
7719;SDS011;3902;49.474;8.616;2024-03-02T03:31:55;9.40;;;7.20;;
7719;SDS011;3902;49.474;8.616;2024-03-02T03:34:20;7.13;;;6.17;;
7719;SDS011;3902;49.474;8.616;2024-03-02T03:36:46;7.40;;;6.37;;
7719;SDS011;3902;49.474;8.616;2024-03-02T03:39:11;7.87;;;7.07;;
7719;SDS011;3902;49.474;8.616;2024-03-02T03:41:37;8.17;;;7.37;;
7719;SDS011;3902;49.474;8.616;2024-03-02T03:44:02;6.90;;;6.10;;
7719;SDS011;3902;49.474;8.616;2024-03-02T03:46:28;8.23;;;7.37;;
7719;SDS011;3902;49.474;8.616;2024-03-02T03:48:54;7.50;;;6.20;;
7719;SDS011;3902;49.474;8.616;2024-03-02T03:51:20;7.80;;;7.00;;
7719;SDS011;3902;49.474;8.616;2024-03-02T03:53:47;9.00;;;7.37;;
7719;SDS011;3902;49.474;8.616;2024-03-02T03:56:13;9.53;;;6.33;;
7719;SDS011;3902;49.474;8.616;2024-03-02T03:58:39;7.90;;;7.10;;
7719;SDS011;3902;49.474;8.616;2024-03-02T04:01:04;7.20;;;6.50;;
7719;SDS011;3902;49.474;8.616;2024-03-02T04:03:30;9.60;;;6.07;;
7719;SDS011;3902;49.474;8.616;2024-03-02T04:05:55;8.10;;;6.97;;
7719;SDS011;3902;49.474;8.616;2024-03-02T04:08:21;7.80;;;6.63;;
7719;SDS011;3902;49.474;8.616;2024-03-02T04:10:46;8.43;;;7.20;;
7719;SDS011;3902;49.474;8.616;2024-03-02T04:13:12;8.27;;;7.37;;
7719;SDS011;3902;49.474;8.616;2024-03-02T04:15:38;8.47;;;6.87;;
7719;SDS011;3902;49.474;8.616;2024-03-02T04:18:03;8.10;;;6.90;;
7719;SDS011;3902;49.474;8.616;2024-03-02T04:20:29;7.30;;;6.60;;
7719;SDS011;3902;49.474;8.616;2024-03-02T04:22:55;7.47;;;6.73;;
7719;SDS011;3902;49.474;8.616;2024-03-02T04:25:20;7.80;;;6.10;;
7719;SDS011;3902;49.474;8.616;2024-03-02T04:27:46;8.43;;;6.83;;
7719;SDS011;3902;49.474;8.616;2024-03-02T04:30:12;7.80;;;7.00;;
7719;SDS011;3902;49.474;8.616;2024-03-02T04:32:37;8.33;;;7.17;;
7719;SDS011;3902;49.474;8.616;2024-03-02T04:35:03;7.50;;;6.80;;
7719;SDS011;3902;49.474;8.616;2024-03-02T04:37:30;7.73;;;6.93;;
7719;SDS011;3902;49.474;8.616;2024-03-02T04:39:56;8.60;;;7.37;;
7719;SDS011;3902;49.474;8.616;2024-03-02T04:42:22;7.70;;;6.90;;
7719;SDS011;3902;49.474;8.616;2024-03-02T04:44:48;8.57;;;7.00;;
7719;SDS011;3902;49.474;8.616;2024-03-02T04:47:13;8.50;;;7.70;;
7719;SDS011;3902;49.474;8.616;2024-03-02T04:49:39;7.20;;;6.20;;
7719;SDS011;3902;49.474;8.616;2024-03-02T04:52:04;6.83;;;6.03;;
7719;SDS011;3902;49.474;8.616;2024-03-02T04:54:30;7.30;;;6.60;;
7719;SDS011;3902;49.474;8.616;2024-03-02T04:56:55;7.60;;;6.90;;
7719;SDS011;3902;49.474;8.616;2024-03-02T04:59:21;7.40;;;6.60;;
7719;SDS011;3902;49.474;8.616;2024-03-02T05:01:47;8.33;;;7.00;;
7719;SDS011;3902;49.474;8.616;2024-03-02T05:04:12;9.63;;;8.60;;
7719;SDS011;3902;49.474;8.616;2024-03-02T05:06:38;9.87;;;8.70;;
7719;SDS011;3902;49.474;8.616;2024-03-02T05:09:07;8.80;;;7.73;;
7719;SDS011;3902;49.474;8.616;2024-03-02T05:11:33;9.30;;;8.03;;
7719;SDS011;3902;49.474;8.616;2024-03-02T05:14:02;10.43;;;9.20;;
7719;SDS011;3902;49.474;8.616;2024-03-02T05:16:28;10.47;;;9.40;;
7719;SDS011;3902;49.474;8.616;2024-03-02T05:18:53;11.43;;;10.00;;
7719;SDS011;3902;49.474;8.616;2024-03-02T05:21:19;11.57;;;9.73;;
7719;SDS011;3902;49.474;8.616;2024-03-02T05:23:45;11.47;;;10.30;;
7719;SDS011;3902;49.474;8.616;2024-03-02T05:26:10;12.87;;;11.13;;
7719;SDS011;3902;49.474;8.616;2024-03-02T05:28:38;12.00;;;10.70;;
7719;SDS011;3902;49.474;8.616;2024-03-02T05:31:03;10.53;;;9.43;;
7719;SDS011;3902;49.474;8.616;2024-03-02T05:33:29;12.43;;;10.17;;
7719;SDS011;3902;49.474;8.616;2024-03-02T05:35:56;11.20;;;9.87;;
7719;SDS011;3902;49.474;8.616;2024-03-02T05:38:22;10.80;;;9.70;;
7719;SDS011;3902;49.474;8.616;2024-03-02T05:40:48;11.60;;;10.07;;
7719;SDS011;3902;49.474;8.616;2024-03-02T05:43:13;12.80;;;10.60;;
7719;SDS011;3902;49.474;8.616;2024-03-02T05:45:39;12.30;;;10.33;;
7719;SDS011;3902;49.474;8.616;2024-03-02T05:48:05;10.50;;;9.40;;
7719;SDS011;3902;49.474;8.616;2024-03-02T05:50:32;11.37;;;10.17;;
7719;SDS011;3902;49.474;8.616;2024-03-02T05:52:58;13.10;;;10.33;;
7719;SDS011;3902;49.474;8.616;2024-03-02T05:55:23;10.40;;;8.70;;
7719;SDS011;3902;49.474;8.616;2024-03-02T05:57:49;10.87;;;9.73;;
7719;SDS011;3902;49.474;8.616;2024-03-02T06:00:33;10.67;;;8.93;;
7719;SDS011;3902;49.474;8.616;2024-03-02T06:02:59;9.90;;;8.90;;
7719;SDS011;3902;49.474;8.616;2024-03-02T06:05:24;9.87;;;8.87;;
7719;SDS011;3902;49.474;8.616;2024-03-02T06:07:50;10.10;;;9.10;;
7719;SDS011;3902;49.474;8.616;2024-03-02T06:10:16;10.00;;;9.10;;
7719;SDS011;3902;49.474;8.616;2024-03-02T06:12:42;12.97;;;9.10;;
7719;SDS011;3902;49.474;8.616;2024-03-02T06:15:08;11.00;;;9.77;;
7719;SDS011;3902;49.474;8.616;2024-03-02T06:17:35;10.60;;;8.87;;
7719;SDS011;3902;49.474;8.616;2024-03-02T06:20:00;10.43;;;9.33;;
7719;SDS011;3902;49.474;8.616;2024-03-02T06:22:26;10.13;;;9.13;;
7719;SDS011;3902;49.474;8.616;2024-03-02T06:24:51;9.70;;;8.70;;
7719;SDS011;3902;49.474;8.616;2024-03-02T06:27:17;8.83;;;7.93;;
7719;SDS011;3902;49.474;8.616;2024-03-02T06:29:42;9.53;;;8.50;;
7719;SDS011;3902;49.474;8.616;2024-03-02T06:32:08;10.43;;;9.33;;
7719;SDS011;3902;49.474;8.616;2024-03-02T06:34:33;9.70;;;8.30;;
7719;SDS011;3902;49.474;8.616;2024-03-02T06:36:59;9.30;;;8.40;;
7719;SDS011;3902;49.474;8.616;2024-03-02T06:39:24;9.20;;;8.30;;
7719;SDS011;3902;49.474;8.616;2024-03-02T06:41:50;9.47;;;8.57;;
7719;SDS011;3902;49.474;8.616;2024-03-02T06:44:16;9.63;;;8.27;;
7719;SDS011;3902;49.474;8.616;2024-03-02T06:46:42;9.10;;;8.20;;
7719;SDS011;3902;49.474;8.616;2024-03-02T06:49:07;8.50;;;7.70;;
7719;SDS011;3902;49.474;8.616;2024-03-02T06:51:34;9.80;;;8.80;;
7719;SDS011;3902;49.474;8.616;2024-03-02T06:54:00;9.83;;;8.83;;
7719;SDS011;3902;49.474;8.616;2024-03-02T06:56:25;9.47;;;8.10;;
7719;SDS011;3902;49.474;8.616;2024-03-02T06:58:51;10.33;;;9.23;;
7719;SDS011;3902;49.474;8.616;2024-03-02T07:01:17;9.80;;;8.57;;
7719;SDS011;3902;49.474;8.616;2024-03-02T07:03:42;9.50;;;8.50;;
7719;SDS011;3902;49.474;8.616;2024-03-02T07:06:09;9.83;;;8.80;;
7719;SDS011;3902;49.474;8.616;2024-03-02T07:08:34;10.10;;;9.10;;
7719;SDS011;3902;49.474;8.616;2024-03-02T07:11:00;9.80;;;8.43;;
7719;SDS011;3902;49.474;8.616;2024-03-02T07:13:25;9.70;;;8.80;;
7719;SDS011;3902;49.474;8.616;2024-03-02T07:15:51;10.23;;;9.23;;
7719;SDS011;3902;49.474;8.616;2024-03-02T07:18:32;9.77;;;8.80;;
7719;SDS011;3902;49.474;8.616;2024-03-02T07:21:05;10.73;;;9.40;;
7719;SDS011;3902;49.474;8.616;2024-03-02T07:23:32;10.53;;;9.53;;
7719;SDS011;3902;49.474;8.616;2024-03-02T07:25:57;9.83;;;8.83;;
7719;SDS011;3902;49.474;8.616;2024-03-02T07:28:24;9.70;;;8.80;;
7719;SDS011;3902;49.474;8.616;2024-03-02T07:31:00;11.10;;;9.33;;
7719;SDS011;3902;49.474;8.616;2024-03-02T07:33:26;11.43;;;9.30;;
7719;SDS011;3902;49.474;8.616;2024-03-02T07:35:52;10.37;;;9.20;;
7719;SDS011;3902;49.474;8.616;2024-03-02T07:38:19;9.57;;;8.57;;
7719;SDS011;3902;49.474;8.616;2024-03-02T07:40:45;10.20;;;8.87;;
7719;SDS011;3902;49.474;8.616;2024-03-02T07:43:10;11.50;;;9.90;;
7719;SDS011;3902;49.474;8.616;2024-03-02T07:45:36;18.13;;;9.83;;
7719;SDS011;3902;49.474;8.616;2024-03-02T07:48:02;11.43;;;9.10;;
7719;SDS011;3902;49.474;8.616;2024-03-02T07:50:30;9.90;;;8.90;;
7719;SDS011;3902;49.474;8.616;2024-03-02T07:52:56;10.23;;;9.23;;
7719;SDS011;3902;49.474;8.616;2024-03-02T07:55:21;10.23;;;8.50;;
7719;SDS011;3902;49.474;8.616;2024-03-02T07:57:48;10.77;;;8.80;;
7719;SDS011;3902;49.474;8.616;2024-03-02T08:00:15;10.70;;;9.60;;
7719;SDS011;3902;49.474;8.616;2024-03-02T08:02:40;12.67;;;11.37;;
7719;SDS011;3902;49.474;8.616;2024-03-02T08:05:07;10.80;;;9.70;;
7719;SDS011;3902;49.474;8.616;2024-03-02T08:07:33;11.70;;;9.43;;
7719;SDS011;3902;49.474;8.616;2024-03-02T08:09:59;9.70;;;8.70;;
7719;SDS011;3902;49.474;8.616;2024-03-02T08:12:24;10.33;;;9.23;;
7719;SDS011;3902;49.474;8.616;2024-03-02T08:14:50;10.20;;;9.20;;
7719;SDS011;3902;49.474;8.616;2024-03-02T08:17:16;10.00;;;8.90;;
7719;SDS011;3902;49.474;8.616;2024-03-02T08:19:44;10.20;;;9.20;;
7719;SDS011;3902;49.474;8.616;2024-03-02T08:22:09;10.30;;;9.20;;
7719;SDS011;3902;49.474;8.616;2024-03-02T08:24:35;11.07;;;9.40;;
7719;SDS011;3902;49.474;8.616;2024-03-02T08:27:01;9.87;;;8.87;;
7719;SDS011;3902;49.474;8.616;2024-03-02T08:29:27;9.90;;;8.77;;
7719;SDS011;3902;49.474;8.616;2024-03-02T08:31:52;9.20;;;8.30;;
7719;SDS011;3902;49.474;8.616;2024-03-02T08:34:18;10.17;;;8.67;;
7719;SDS011;3902;49.474;8.616;2024-03-02T08:36:44;10.03;;;9.03;;
7719;SDS011;3902;49.474;8.616;2024-03-02T08:39:10;10.60;;;8.43;;
7719;SDS011;3902;49.474;8.616;2024-03-02T08:41:40;8.87;;;7.93;;
7719;SDS011;3902;49.474;8.616;2024-03-02T08:44:07;9.30;;;8.40;;
7719;SDS011;3902;49.474;8.616;2024-03-02T08:46:32;9.00;;;8.10;;
7719;SDS011;3902;49.474;8.616;2024-03-02T08:48:58;12.93;;;8.30;;
7719;SDS011;3902;49.474;8.616;2024-03-02T08:51:24;8.60;;;7.70;;
7719;SDS011;3902;49.474;8.616;2024-03-02T08:53:50;9.00;;;8.10;;
7719;SDS011;3902;49.474;8.616;2024-03-02T08:56:15;9.43;;;7.83;;
7719;SDS011;3902;49.474;8.616;2024-03-02T08:58:41;9.23;;;8.27;;
7719;SDS011;3902;49.474;8.616;2024-03-02T09:01:07;8.03;;;7.30;;
7719;SDS011;3902;49.474;8.616;2024-03-02T09:03:33;8.10;;;7.20;;
7719;SDS011;3902;49.474;8.616;2024-03-02T09:05:59;8.13;;;7.33;;
7719;SDS011;3902;49.474;8.616;2024-03-02T09:08:25;8.70;;;7.80;;
7719;SDS011;3902;49.474;8.616;2024-03-02T09:10:51;8.27;;;7.00;;
7719;SDS011;3902;49.474;8.616;2024-03-02T09:13:17;7.50;;;6.80;;
7719;SDS011;3902;49.474;8.616;2024-03-02T09:15:42;9.27;;;7.60;;
7719;SDS011;3902;49.474;8.616;2024-03-02T09:18:09;8.77;;;7.73;;
7719;SDS011;3902;49.474;8.616;2024-03-02T09:20:35;9.03;;;7.97;;
7719;SDS011;3902;49.474;8.616;2024-03-02T09:23:00;8.50;;;7.50;;
7719;SDS011;3902;49.474;8.616;2024-03-02T09:25:26;7.83;;;7.03;;
7719;SDS011;3902;49.474;8.616;2024-03-02T09:27:51;8.07;;;7.27;;
7719;SDS011;3902;49.474;8.616;2024-03-02T09:30:17;8.57;;;7.67;;
7719;SDS011;3902;49.474;8.616;2024-03-02T09:32:43;8.17;;;7.37;;
7719;SDS011;3902;49.474;8.616;2024-03-02T09:35:08;8.40;;;7.57;;
7719;SDS011;3902;49.474;8.616;2024-03-02T09:37:34;7.73;;;6.93;;
7719;SDS011;3902;49.474;8.616;2024-03-02T09:40:00;8.00;;;7.20;;
7719;SDS011;3902;49.474;8.616;2024-03-02T09:42:26;8.20;;;7.40;;
7719;SDS011;3902;49.474;8.616;2024-03-02T09:44:52;8.40;;;7.43;;
7719;SDS011;3902;49.474;8.616;2024-03-02T09:47:18;8.13;;;7.33;;
7719;SDS011;3902;49.474;8.616;2024-03-02T09:49:44;10.10;;;7.37;;
7719;SDS011;3902;49.474;8.616;2024-03-02T09:52:10;8.33;;;7.43;;
7719;SDS011;3902;49.474;8.616;2024-03-02T09:54:36;8.83;;;6.87;;
7719;SDS011;3902;49.474;8.616;2024-03-02T09:57:04;7.40;;;6.70;;
7719;SDS011;3902;49.474;8.616;2024-03-02T09:59:29;6.93;;;6.33;;
7719;SDS011;3902;49.474;8.616;2024-03-02T10:01:59;6.40;;;5.80;;
7719;SDS011;3902;49.474;8.616;2024-03-02T10:04:25;6.13;;;5.53;;
7719;SDS011;3902;49.474;8.616;2024-03-02T10:07:01;6.00;;;5.50;;
7719;SDS011;3902;49.474;8.616;2024-03-02T10:09:37;5.90;;;5.30;;
7719;SDS011;3902;49.474;8.616;2024-03-02T10:12:04;5.90;;;5.30;;
7719;SDS011;3902;49.474;8.616;2024-03-02T10:14:30;6.50;;;5.90;;
7719;SDS011;3902;49.474;8.616;2024-03-02T10:17:01;6.40;;;5.63;;
7719;SDS011;3902;49.474;8.616;2024-03-02T10:19:31;8.20;;;6.40;;
7719;SDS011;3902;49.474;8.616;2024-03-02T10:21:58;9.13;;;6.50;;
7719;SDS011;3902;49.474;8.616;2024-03-02T10:24:24;6.00;;;5.40;;
7719;SDS011;3902;49.474;8.616;2024-03-02T10:26:50;6.53;;;5.83;;
7719;SDS011;3902;49.474;8.616;2024-03-02T10:29:17;5.43;;;4.93;;
7719;SDS011;3902;49.474;8.616;2024-03-02T10:31:43;5.53;;;5.03;;
7719;SDS011;3902;49.474;8.616;2024-03-02T10:34:11;5.93;;;5.33;;
7719;SDS011;3902;49.474;8.616;2024-03-02T10:36:41;5.00;;;4.50;;
7719;SDS011;3902;49.474;8.616;2024-03-02T10:39:07;5.43;;;4.80;;
7719;SDS011;3902;49.474;8.616;2024-03-02T10:41:37;5.17;;;4.67;;
7719;SDS011;3902;49.474;8.616;2024-03-02T10:44:04;6.13;;;5.53;;
7719;SDS011;3902;49.474;8.616;2024-03-02T10:46:31;5.30;;;4.80;;
7719;SDS011;3902;49.474;8.616;2024-03-02T10:48:59;6.17;;;5.50;;
7719;SDS011;3902;49.474;8.616;2024-03-02T10:51:30;4.90;;;4.33;;
7719;SDS011;3902;49.474;8.616;2024-03-02T10:54:01;5.97;;;5.37;;
7719;SDS011;3902;49.474;8.616;2024-03-02T10:56:29;6.00;;;5.40;;
7719;SDS011;3902;49.474;8.616;2024-03-02T11:01:57;5.57;;;5.07;;
7719;SDS011;3902;49.474;8.616;2024-03-02T11:04:24;5.97;;;5.07;;
7719;SDS011;3902;49.474;8.616;2024-03-02T11:06:51;5.27;;;4.40;;
7719;SDS011;3902;49.474;8.616;2024-03-02T11:09:20;4.43;;;4.00;;
7719;SDS011;3902;49.474;8.616;2024-03-02T11:11:56;6.00;;;4.57;;
7719;SDS011;3902;49.474;8.616;2024-03-02T11:14:27;4.50;;;3.87;;
7719;SDS011;3902;49.474;8.616;2024-03-02T11:16:57;3.93;;;3.53;;
7719;SDS011;3902;49.474;8.616;2024-03-02T11:19:24;4.00;;;3.50;;
7719;SDS011;3902;49.474;8.616;2024-03-02T11:21:50;3.50;;;2.67;;
7719;SDS011;3902;49.474;8.616;2024-03-02T11:24:28;3.47;;;3.17;;
7719;SDS011;3902;49.474;8.616;2024-03-02T11:27:00;4.00;;;3.40;;
7719;SDS011;3902;49.474;8.616;2024-03-02T11:32:03;1.63;;;1.53;;
7719;SDS011;3902;49.474;8.616;2024-03-02T11:34:40;1.90;;;1.70;;
7719;SDS011;3902;49.474;8.616;2024-03-02T11:37:14;1.70;;;1.60;;
7719;SDS011;3902;49.474;8.616;2024-03-02T11:39:40;1.93;;;1.70;;
7719;SDS011;3902;49.474;8.616;2024-03-02T11:42:08;1.40;;;1.30;;
7719;SDS011;3902;49.474;8.616;2024-03-02T11:44:39;1.60;;;1.20;;
7719;SDS011;3902;49.474;8.616;2024-03-02T11:47:07;1.63;;;1.53;;
7719;SDS011;3902;49.474;8.616;2024-03-02T11:49:42;1.17;;;1.07;;
7719;SDS011;3902;49.474;8.616;2024-03-02T11:52:10;1.40;;;1.30;;
7719;SDS011;3902;49.474;8.616;2024-03-02T11:54:37;1.40;;;1.30;;
7719;SDS011;3902;49.474;8.616;2024-03-02T11:57:11;2.40;;;1.70;;
7719;SDS011;3902;49.474;8.616;2024-03-02T11:59:37;1.57;;;1.47;;
7719;SDS011;3902;49.474;8.616;2024-03-02T12:02:03;1.40;;;1.30;;
7719;SDS011;3902;49.474;8.616;2024-03-02T12:04:29;1.70;;;1.60;;
7719;SDS011;3902;49.474;8.616;2024-03-02T12:06:56;2.00;;;1.70;;
7719;SDS011;3902;49.474;8.616;2024-03-02T12:09:25;1.50;;;1.40;;
7719;SDS011;3902;49.474;8.616;2024-03-02T12:12:01;1.67;;;1.57;;
7719;SDS011;3902;49.474;8.616;2024-03-02T12:14:34;1.57;;;1.40;;
7719;SDS011;3902;49.474;8.616;2024-03-02T12:17:00;1.80;;;1.70;;
7719;SDS011;3902;49.474;8.616;2024-03-02T12:19:27;1.50;;;1.40;;
7719;SDS011;3902;49.474;8.616;2024-03-02T12:21:55;1.40;;;1.20;;
7719;SDS011;3902;49.474;8.616;2024-03-02T12:24:22;1.40;;;1.20;;
7719;SDS011;3902;49.474;8.616;2024-03-02T12:26:51;1.63;;;1.40;;
7719;SDS011;3902;49.474;8.616;2024-03-02T12:29:18;1.30;;;1.20;;
7719;SDS011;3902;49.474;8.616;2024-03-02T12:31:45;1.43;;;1.33;;
7719;SDS011;3902;49.474;8.616;2024-03-02T12:34:13;1.27;;;1.13;;
7719;SDS011;3902;49.474;8.616;2024-03-02T12:36:40;1.53;;;1.43;;
7719;SDS011;3902;49.474;8.616;2024-03-02T12:39:07;3.57;;;1.50;;
7719;SDS011;3902;49.474;8.616;2024-03-02T12:41:35;2.17;;;1.80;;
7719;SDS011;3902;49.474;8.616;2024-03-02T12:44:02;2.90;;;1.60;;
7719;SDS011;3902;49.474;8.616;2024-03-02T12:46:28;3.33;;;1.97;;
7719;SDS011;3902;49.474;8.616;2024-03-02T12:48:53;1.67;;;1.43;;
7719;SDS011;3902;49.474;8.616;2024-03-02T12:51:19;1.87;;;1.63;;
7719;SDS011;3902;49.474;8.616;2024-03-02T12:53:45;1.75;;;1.52;;
7719;SDS011;3902;49.474;8.616;2024-03-02T12:56:10;1.75;;;1.58;;
7719;SDS011;3902;49.474;8.616;2024-03-02T12:58:39;1.77;;;1.65;;
7719;SDS011;3902;49.474;8.616;2024-03-02T13:01:08;1.70;;;1.60;;
7719;SDS011;3902;49.474;8.616;2024-03-02T13:03:35;1.50;;;1.40;;
7719;SDS011;3902;49.474;8.616;2024-03-02T13:06:01;1.60;;;1.50;;
7719;SDS011;3902;49.474;8.616;2024-03-02T13:08:27;1.48;;;1.38;;
7719;SDS011;3902;49.474;8.616;2024-03-02T13:10:53;2.13;;;1.48;;
7719;SDS011;3902;49.474;8.616;2024-03-02T13:13:19;2.10;;;1.52;;
7719;SDS011;3902;49.474;8.616;2024-03-02T13:15:45;1.42;;;1.33;;
7719;SDS011;3902;49.474;8.616;2024-03-02T13:18:11;1.60;;;1.50;;
7719;SDS011;3902;49.474;8.616;2024-03-02T13:20:36;1.77;;;1.50;;
7719;SDS011;3902;49.474;8.616;2024-03-02T13:23:03;1.70;;;1.60;;
7719;SDS011;3902;49.474;8.616;2024-03-02T13:25:29;1.58;;;1.25;;
7719;SDS011;3902;49.474;8.616;2024-03-02T13:27:56;2.00;;;1.67;;
7719;SDS011;3902;49.474;8.616;2024-03-02T13:30:22;1.73;;;1.63;;
7719;SDS011;3902;49.474;8.616;2024-03-02T13:32:47;2.78;;;1.90;;
7719;SDS011;3902;49.474;8.616;2024-03-02T13:35:13;1.70;;;1.60;;
7719;SDS011;3902;49.474;8.616;2024-03-02T13:37:38;1.50;;;1.40;;
7719;SDS011;3902;49.474;8.616;2024-03-02T13:40:04;1.52;;;1.42;;
7719;SDS011;3902;49.474;8.616;2024-03-02T13:42:30;1.30;;;1.20;;
7719;SDS011;3902;49.474;8.616;2024-03-02T13:44:56;1.50;;;1.40;;
7719;SDS011;3902;49.474;8.616;2024-03-02T13:47:22;1.83;;;1.73;;
7719;SDS011;3902;49.474;8.616;2024-03-02T13:49:47;1.60;;;1.50;;
7719;SDS011;3902;49.474;8.616;2024-03-02T13:52:14;1.60;;;1.40;;
7719;SDS011;3902;49.474;8.616;2024-03-02T13:54:40;1.40;;;1.30;;
7719;SDS011;3902;49.474;8.616;2024-03-02T13:57:07;1.30;;;1.20;;
7719;SDS011;3902;49.474;8.616;2024-03-02T13:59:33;1.60;;;1.50;;
7719;SDS011;3902;49.474;8.616;2024-03-02T14:02:02;1.50;;;1.40;;
7719;SDS011;3902;49.474;8.616;2024-03-02T14:04:36;1.80;;;1.60;;
7719;SDS011;3902;49.474;8.616;2024-03-02T14:07:02;1.48;;;1.38;;
7719;SDS011;3902;49.474;8.616;2024-03-02T14:09:28;2.38;;;1.50;;
7719;SDS011;3902;49.474;8.616;2024-03-02T14:11:54;1.25;;;1.15;;
7719;SDS011;3902;49.474;8.616;2024-03-02T14:14:20;1.23;;;1.13;;
7719;SDS011;3902;49.474;8.616;2024-03-02T14:16:46;1.77;;;1.10;;
7719;SDS011;3902;49.474;8.616;2024-03-02T14:19:11;1.35;;;1.25;;
7719;SDS011;3902;49.474;8.616;2024-03-02T14:21:40;1.27;;;1.17;;
7719;SDS011;3902;49.474;8.616;2024-03-02T14:24:05;1.30;;;1.20;;
7719;SDS011;3902;49.474;8.616;2024-03-02T14:26:34;1.33;;;1.23;;
7719;SDS011;3902;49.474;8.616;2024-03-02T14:29:01;1.37;;;1.27;;
7719;SDS011;3902;49.474;8.616;2024-03-02T14:31:27;1.40;;;1.30;;
7719;SDS011;3902;49.474;8.616;2024-03-02T14:33:53;1.30;;;1.20;;
7719;SDS011;3902;49.474;8.616;2024-03-02T14:36:19;1.20;;;1.10;;
7719;SDS011;3902;49.474;8.616;2024-03-02T14:38:45;1.33;;;1.10;;
7719;SDS011;3902;49.474;8.616;2024-03-02T14:41:11;0.90;;;0.90;;
7719;SDS011;3902;49.474;8.616;2024-03-02T14:43:36;1.30;;;1.10;;
7719;SDS011;3902;49.474;8.616;2024-03-02T14:46:02;1.10;;;1.00;;
7719;SDS011;3902;49.474;8.616;2024-03-02T14:48:28;1.30;;;1.20;;
7719;SDS011;3902;49.474;8.616;2024-03-02T14:50:54;1.20;;;1.10;;
7719;SDS011;3902;49.474;8.616;2024-03-02T14:53:20;1.20;;;1.10;;
7719;SDS011;3902;49.474;8.616;2024-03-02T14:55:46;1.30;;;1.20;;
7719;SDS011;3902;49.474;8.616;2024-03-02T14:58:11;1.20;;;1.10;;
7719;SDS011;3902;49.474;8.616;2024-03-02T15:00:37;1.30;;;1.20;;
7719;SDS011;3902;49.474;8.616;2024-03-02T15:03:03;1.37;;;1.27;;
7719;SDS011;3902;49.474;8.616;2024-03-02T15:05:31;1.40;;;1.30;;
7719;SDS011;3902;49.474;8.616;2024-03-02T15:07:57;1.53;;;1.30;;
7719;SDS011;3902;49.474;8.616;2024-03-02T15:10:24;1.27;;;1.17;;
7719;SDS011;3902;49.474;8.616;2024-03-02T15:12:49;1.30;;;1.20;;
7719;SDS011;3902;49.474;8.616;2024-03-02T15:15:16;2.10;;;1.37;;
7719;SDS011;3902;49.474;8.616;2024-03-02T15:17:41;2.53;;;1.50;;
7719;SDS011;3902;49.474;8.616;2024-03-02T15:20:07;1.70;;;1.60;;